Time;durP1;ratioP1;P1;durP2;ratioP2;P2;SDS_P1;SDS_P2;PMS_P1;PMS_P2;Temp;Humidity;BMP_temperature;BMP_pressure;BME280_temperature;BME280_humidity;BME280_pressure;Samples;Min_cycle;Max_cycle;Signal;HPM_P1;HPM_P2
2022/03/29 00:00:33;;;;;;;15.93;14.32;;;8.60;99.90;;;;;;5017681;28;20045;-74
2022/03/29 00:02:59;;;;;;;16.13;14.13;;;8.70;99.90;;;;;;5001496;28;20069;-74
2022/03/29 00:05:25;;;;;;;16.67;13.73;;;8.70;99.90;;;;;;5018449;28;20098;-74
2022/03/29 00:07:50;;;;;;;16.13;14.32;;;8.70;99.90;;;;;;5017528;28;20484;-74
2022/03/29 00:10:16;;;;;;;17.80;14.65;;;8.70;99.90;;;;;;5017548;28;20040;-75
2022/03/29 00:12:42;;;;;;;17.00;15.27;;;8.70;99.90;;;;;;5017373;28;20452;-74
2022/03/29 00:15:08;;;;;;;16.90;15.15;;;8.70;99.90;;;;;;5017340;28;20103;-74
2022/03/29 00:17:33;;;;;;;17.25;15.40;;;8.70;99.90;;;;;;5017411;28;20041;-74
2022/03/29 00:19:59;;;;;;;17.02;15.13;;;8.70;99.90;;;;;;5001058;28;20096;-75
2022/03/29 00:22:25;;;;;;;20.23;16.02;;;8.70;99.90;;;;;;5017207;28;20037;-74
2022/03/29 00:24:51;;;;;;;18.27;15.82;;;8.70;99.90;;;;;;5017342;28;20099;-74
2022/03/29 00:27:17;;;;;;;20.90;16.00;;;8.70;99.90;;;;;;5017078;28;20399;-75
2022/03/29 00:29:43;;;;;;;20.70;16.27;;;8.60;99.90;;;;;;5017033;28;20064;-75
2022/03/29 00:32:09;;;;;;;19.33;16.45;;;8.60;99.90;;;;;;5016942;28;20084;-74
2022/03/29 00:34:36;;;;;;;20.90;15.85;;;8.60;99.90;;;;;;5017005;28;20033;-74
2022/03/29 00:37:06;;;;;;;20.35;16.70;;;8.60;99.90;;;;;;5000519;28;20037;-74
2022/03/29 00:39:32;;;;;;;20.52;17.08;;;8.60;99.90;;;;;;5016879;28;20406;-75
2022/03/29 00:41:59;;;;;;;18.75;15.98;;;8.60;99.90;;;;;;5000581;28;20037;-74
2022/03/29 00:44:33;;;;;;;20.35;16.42;;;8.60;99.90;;;;;;5016817;28;20038;-75
2022/03/29 00:47:00;;;;;;;20.95;16.45;;;8.70;99.90;;;;;;5016810;28;20099;-74
2022/03/29 00:49:25;;;;;;;23.67;16.45;;;8.60;99.90;;;;;;5000456;28;20489;-74
2022/03/29 00:51:58;;;;;;;17.13;15.38;;;8.60;99.90;;;;;;5016620;28;20143;-74
2022/03/29 00:54:30;;;;;;;18.40;15.45;;;8.60;99.90;;;;;;5017076;28;20046;-75
2022/03/29 00:56:57;;;;;;;17.48;14.90;;;8.60;99.90;;;;;;4999836;28;20048;-74
2022/03/29 00:59:24;;;;;;;17.63;15.32;;;8.60;99.90;;;;;;5016758;28;20041;-75
2022/03/29 01:01:50;;;;;;;20.95;16.63;;;8.60;99.90;;;;;;5016486;28;20056;-74
2022/03/29 01:04:15;;;;;;;22.08;15.48;;;8.50;99.90;;;;;;5016728;28;20033;-75
2022/03/29 01:06:43;;;;;;;16.50;14.43;;;8.50;99.90;;;;;;5016409;28;20033;-75
2022/03/29 01:09:08;;;;;;;17.52;14.45;;;8.60;99.90;;;;;;5016376;28;20038;-74
2022/03/29 01:11:35;;;;;;;18.38;14.63;;;8.50;99.90;;;;;;4999954;28;20029;-74
2022/03/29 01:14:01;;;;;;;18.85;15.50;;;8.50;99.90;;;;;;5016594;28;20067;-75
2022/03/29 01:19:16;;;;;;;17.90;15.50;;;8.50;99.90;;;;;;5016170;28;20049;-75
2022/03/29 01:21:43;;;;;;;19.27;14.23;;;8.50;99.90;;;;;;5000073;28;20045;-74
2022/03/29 01:24:11;;;;;;;18.77;14.88;;;8.50;99.90;;;;;;5016168;28;20041;-74
2022/03/29 01:26:37;;;;;;;21.88;15.43;;;8.50;99.90;;;;;;5016062;28;20045;-74
2022/03/29 01:29:02;;;;;;;21.02;15.70;;;8.50;99.90;;;;;;5016078;28;20030;-74
2022/03/29 01:31:31;;;;;;;17.35;14.57;;;8.50;99.90;;;;;;5016075;28;20087;-75
2022/03/29 01:33:57;;;;;;;20.52;15.68;;;8.50;99.90;;;;;;5016144;28;20033;-74
2022/03/29 01:36:22;;;;;;;18.40;15.98;;;8.50;99.90;;;;;;4999700;28;20585;-75
2022/03/29 01:38:48;;;;;;;20.45;16.55;;;8.50;99.90;;;;;;5016186;28;20120;-74
2022/03/29 01:41:14;;;;;;;19.75;15.73;;;8.40;99.90;;;;;;5015749;28;20045;-74
2022/03/29 01:43:39;;;;;;;19.27;16.70;;;8.40;99.90;;;;;;5015674;28;20091;-74
2022/03/29 01:46:07;;;;;;;22.77;16.90;;;8.50;99.90;;;;;;5015758;28;20076;-74
2022/03/29 01:48:33;;;;;;;24.25;17.55;;;8.40;99.90;;;;;;5015666;28;20417;-75
2022/03/29 01:50:59;;;;;;;21.83;16.58;;;8.40;99.90;;;;;;5015836;28;20041;-75
2022/03/29 01:53:26;;;;;;;22.63;17.83;;;8.40;99.90;;;;;;5000226;28;20082;-74
2022/03/29 01:55:59;;;;;;;24.27;18.05;;;8.40;99.90;;;;;;5015596;28;20583;-74
2022/03/29 01:58:27;;;;;;;22.88;18.42;;;8.40;99.90;;;;;;4999329;28;20045;-75
2022/03/29 02:00:53;;;;;;;22.85;17.95;;;8.40;99.90;;;;;;4999617;28;20060;-75
2022/03/29 02:03:19;;;;;;;27.77;18.48;;;8.40;99.90;;;;;;5015447;28;20095;-74
2022/03/29 02:05:45;;;;;;;24.30;17.80;;;8.40;99.90;;;;;;4999335;28;20034;-74
2022/03/29 02:08:11;;;;;;;23.13;18.05;;;8.40;99.90;;;;;;4999089;28;20579;-74
2022/03/29 02:10:38;;;;;;;25.77;17.92;;;8.40;99.90;;;;;;4998624;28;20124;-74
2022/03/29 02:13:03;;;;;;;23.98;18.08;;;8.40;99.90;;;;;;5015711;28;20103;-74
2022/03/29 02:15:29;;;;;;;25.65;18.48;;;8.40;99.90;;;;;;5015710;28;20514;-76
2022/03/29 02:17:55;;;;;;;23.35;18.33;;;8.40;99.90;;;;;;5015383;28;20510;-74
2022/03/29 02:20:22;;;;;;;23.95;18.52;;;8.40;99.90;;;;;;5015716;28;20046;-75
2022/03/29 02:22:48;;;;;;;25.23;17.65;;;8.40;99.90;;;;;;4999357;28;20045;-74
2022/03/29 02:25:14;;;;;;;22.63;16.85;;;8.40;99.90;;;;;;5015318;28;20065;-74
2022/03/29 02:27:41;;;;;;;24.75;18.88;;;8.40;99.90;;;;;;5015586;28;20406;-75
2022/03/29 02:30:08;;;;;;;26.05;18.80;;;8.40;99.90;;;;;;4999063;28;20052;-75
2022/03/29 02:32:34;;;;;;;25.17;17.98;;;8.40;99.90;;;;;;5016321;28;20059;-74
2022/03/29 02:34:59;;;;;;;24.55;18.20;;;8.30;99.90;;;;;;5015305;28;20494;-74
2022/03/29 02:37:25;;;;;;;24.63;17.63;;;8.30;99.90;;;;;;5015398;28;20045;-74
2022/03/29 02:39:51;;;;;;;25.90;18.80;;;8.30;99.90;;;;;;5015541;28;20076;-75
2022/03/29 02:42:16;;;;;;;23.42;18.77;;;8.30;99.90;;;;;;5015120;28;20034;-74
2022/03/29 02:44:42;;;;;;;24.85;18.05;;;8.20;99.90;;;;;;5015353;28;20030;-75
2022/03/29 02:47:07;;;;;;;27.60;19.30;;;8.20;99.90;;;;;;5015219;28;20079;-74
2022/03/29 02:49:33;;;;;;;24.35;18.65;;;8.30;99.90;;;;;;5015278;28;20073;-75
2022/03/29 02:51:59;;;;;;;26.40;20.08;;;8.30;99.90;;;;;;4998723;28;20037;-74
2022/03/29 02:54:24;;;;;;;22.48;18.73;;;8.20;99.90;;;;;;5015273;28;20038;-74
2022/03/29 02:56:50;;;;;;;23.17;18.95;;;8.20;99.90;;;;;;5015393;28;20045;-74
2022/03/29 02:59:16;;;;;;;25.95;19.63;;;8.20;99.90;;;;;;5015298;28;20565;-74
2022/03/29 03:01:41;;;;;;;26.70;18.90;;;8.20;99.90;;;;;;5015271;28;20048;-74
2022/03/29 03:04:07;;;;;;;22.95;19.05;;;8.20;99.90;;;;;;5015138;28;20124;-75
2022/03/29 03:06:33;;;;;;;23.45;18.80;;;8.20;99.90;;;;;;5014913;28;20046;-74
2022/03/29 03:09:00;;;;;;;25.85;20.20;;;8.20;99.90;;;;;;5015327;28;20052;-74
2022/03/29 03:11:26;;;;;;;24.05;18.80;;;8.20;99.90;;;;;;4998734;28;20044;-75
2022/03/29 03:13:52;;;;;;;23.70;18.85;;;8.20;99.90;;;;;;5015157;28;20125;-74
2022/03/29 03:16:17;;;;;;;22.83;18.23;;;8.20;99.90;;;;;;5014965;28;20081;-74
2022/03/29 03:18:43;;;;;;;24.58;18.45;;;8.20;99.90;;;;;;4998716;28;20073;-75
2022/03/29 03:21:09;;;;;;;24.00;18.67;;;8.20;99.90;;;;;;5016992;28;20053;-75
2022/03/29 03:23:35;;;;;;;25.65;19.30;;;8.20;99.90;;;;;;5018426;28;20041;-74
2022/03/29 03:26:01;;;;;;;25.77;18.67;;;8.20;99.90;;;;;;5001985;28;20048;-74
2022/03/29 03:28:26;;;;;;;28.60;18.83;;;8.20;99.90;;;;;;5018331;28;20033;-74
2022/03/29 03:30:53;;;;;;;25.50;19.20;;;8.20;99.90;;;;;;5018383;28;20041;-74
2022/03/29 03:33:19;;;;;;;25.20;19.15;;;8.20;99.90;;;;;;5018207;28;20071;-74
2022/03/29 03:35:46;;;;;;;28.65;19.88;;;8.20;99.90;;;;;;5018197;28;20494;-74
2022/03/29 03:38:11;;;;;;;22.70;18.20;;;8.20;99.90;;;;;;5018231;28;20056;-74
2022/03/29 03:40:37;;;;;;;26.63;19.75;;;8.20;99.90;;;;;;5018235;28;20041;-75
2022/03/29 03:43:03;;;;;;;25.33;19.67;;;8.20;99.90;;;;;;5001662;28;20045;-74
2022/03/29 03:45:29;;;;;;;23.98;18.92;;;8.20;99.90;;;;;;5018198;28;20045;-74
2022/03/29 03:47:54;;;;;;;24.85;19.05;;;8.20;99.90;;;;;;5018251;28;20119;-75
2022/03/29 03:50:20;;;;;;;29.67;19.60;;;8.20;99.90;;;;;;5018256;28;20034;-75
2022/03/29 03:52:46;;;;;;;27.40;20.10;;;8.20;99.90;;;;;;5017782;28;20457;-74
2022/03/29 03:55:11;;;;;;;25.75;18.98;;;8.20;99.90;;;;;;5018043;28;20393;-74
2022/03/29 03:57:37;;;;;;;27.05;19.45;;;8.20;99.90;;;;;;5001566;28;20550;-74
2022/03/29 04:00:05;;;;;;;24.95;19.48;;;8.30;99.90;;;;;;5001523;28;20099;-75
2022/03/29 04:02:30;;;;;;;29.17;19.80;;;8.20;99.90;;;;;;5001187;28;20080;-74
2022/03/29 04:04:56;;;;;;;24.35;19.60;;;8.20;99.90;;;;;;5017916;28;20080;-75
2022/03/29 04:07:22;;;;;;;24.38;19.27;;;8.20;99.90;;;;;;5017635;28;20034;-74
2022/03/29 04:09:47;;;;;;;26.08;18.75;;;8.20;99.90;;;;;;5017592;28;20044;-74
2022/03/29 04:12:13;;;;;;;25.95;18.67;;;8.20;99.90;;;;;;5017444;28;20037;-74
2022/03/29 04:14:39;;;;;;;25.42;18.73;;;8.20;99.90;;;;;;5001146;28;20029;-74
2022/03/29 04:17:06;;;;;;;26.35;19.35;;;8.20;99.90;;;;;;5001021;28;20095;-74
2022/03/29 04:19:31;;;;;;;25.48;19.23;;;8.20;99.90;;;;;;5017300;28;20049;-75
2022/03/29 04:21:57;;;;;;;27.08;19.02;;;8.20;99.90;;;;;;5017309;28;20045;-74
2022/03/29 04:24:22;;;;;;;27.27;19.77;;;8.30;99.90;;;;;;5017357;28;20053;-75
2022/03/29 04:26:48;;;;;;;24.27;18.63;;;8.30;99.90;;;;;;5017190;28;20042;-74
2022/03/29 04:29:14;;;;;;;26.30;19.08;;;8.30;99.90;;;;;;5017202;28;20045;-75
2022/03/29 04:31:40;;;;;;;25.48;19.20;;;8.30;99.90;;;;;;5016662;28;20045;-74
2022/03/29 04:34:06;;;;;;;24.35;18.65;;;8.30;99.90;;;;;;5017230;28;20043;-74
2022/03/29 04:36:31;;;;;;;25.20;18.27;;;8.30;99.90;;;;;;5017082;28;20048;-74
2022/03/29 04:39:00;;;;;;;27.55;18.80;;;8.30;99.90;;;;;;5017317;28;20044;-74
2022/03/29 04:41:26;;;;;;;25.55;19.40;;;8.30;99.90;;;;;;5017021;28;20516;-75
2022/03/29 04:43:51;;;;;;;25.17;18.52;;;8.20;99.90;;;;;;5016805;28;20589;-74
2022/03/29 04:46:17;;;;;;;30.90;18.60;;;8.20;99.90;;;;;;5016766;28;20128;-74
2022/03/29 04:48:44;;;;;;;29.75;20.55;;;8.20;99.90;;;;;;5016893;28;20079;-74
2022/03/29 04:51:10;;;;;;;28.33;18.85;;;8.20;99.90;;;;;;5016857;28;20079;-75
2022/03/29 04:53:39;;;;;;;30.08;20.25;;;8.20;99.90;;;;;;5017169;28;20034;-74
2022/03/29 04:56:05;;;;;;;28.33;19.52;;;8.20;99.90;;;;;;5000355;28;20084;-72
2022/03/29 04:58:31;;;;;;;30.08;19.42;;;8.20;99.90;;;;;;5016523;28;20045;-72
2022/03/29 05:00:58;;;;;;;28.63;19.80;;;8.20;99.90;;;;;;5016565;28;20120;-72
2022/03/29 05:03:24;;;;;;;28.83;19.35;;;8.20;99.90;;;;;;5016456;28;20124;-72
2022/03/29 05:05:50;;;;;;;32.97;21.50;;;8.20;99.90;;;;;;5016302;28;20149;-72
2022/03/29 05:08:15;;;;;;;29.45;19.98;;;8.20;99.90;;;;;;5016430;28;20038;-72
2022/03/29 05:10:41;;;;;;;34.38;21.85;;;8.20;99.90;;;;;;5016379;28;20045;-72
2022/03/29 05:13:07;;;;;;;31.10;20.80;;;8.20;99.90;;;;;;5016556;28;20128;-72
2022/03/29 05:15:33;;;;;;;32.10;21.23;;;8.20;99.90;;;;;;5016217;28;20501;-72
2022/03/29 05:17:58;;;;;;;33.72;21.00;;;8.20;99.90;;;;;;5016537;28;20048;-72
2022/03/29 05:20:24;;;;;;;29.65;21.00;;;8.20;99.90;;;;;;5016216;28;20045;-72
2022/03/29 05:22:51;;;;;;;32.97;19.83;;;8.20;99.90;;;;;;5016107;28;20103;-72
2022/03/29 05:25:19;;;;;;;30.45;20.02;;;8.20;99.90;;;;;;5015990;28;20124;-72
2022/03/29 05:27:46;;;;;;;33.35;20.10;;;8.20;99.90;;;;;;5000002;28;20045;-72
2022/03/29 05:30:12;;;;;;;29.80;20.85;;;8.20;99.90;;;;;;5015987;28;20239;-72
2022/03/29 05:32:38;;;;;;;32.53;20.92;;;8.20;99.90;;;;;;5015871;28;20041;-72
2022/03/29 05:35:07;;;;;;;28.95;20.13;;;8.20;99.90;;;;;;5015921;28;20494;-72
2022/03/29 05:37:32;;;;;;;31.25;20.73;;;8.20;99.90;;;;;;5016096;28;20103;-72
2022/03/29 05:39:58;;;;;;;28.33;21.10;;;8.20;99.90;;;;;;5015772;28;20567;-72
2022/03/29 05:42:24;;;;;;;34.35;21.27;;;8.20;99.90;;;;;;5015643;28;20171;-72
2022/03/29 05:44:50;;;;;;;32.30;21.13;;;8.20;99.90;;;;;;5015805;28;20472;-72
2022/03/29 05:49:59;;;;;;;34.28;20.52;;;8.20;99.90;;;;;;5015610;28;20421;-72
2022/03/29 05:52:25;;;;;;;33.08;21.05;;;8.20;99.90;;;;;;4999327;28;20033;-72
2022/03/29 05:54:51;;;;;;;33.17;21.27;;;8.30;99.90;;;;;;5015563;28;20045;-72
2022/03/29 05:57:17;;;;;;;33.15;20.40;;;8.30;99.90;;;;;;4999198;28;20120;-72
2022/03/29 05:59:44;;;;;;;29.00;19.88;;;8.30;99.90;;;;;;5015555;28;20096;-72
2022/03/29 06:02:10;;;;;;;33.20;20.98;;;8.30;99.90;;;;;;5015484;28;20073;-72
2022/03/29 06:04:36;;;;;;;30.77;20.38;;;8.30;99.90;;;;;;5015465;28;20490;-72
2022/03/29 06:07:04;;;;;;;33.72;20.45;;;8.30;99.90;;;;;;5015401;28;20037;-72
2022/03/29 06:09:30;;;;;;;27.85;20.20;;;8.30;99.90;;;;;;5015661;28;20077;-72
2022/03/29 06:11:56;;;;;;;34.35;21.73;;;8.40;99.90;;;;;;4999213;28;20042;-72
2022/03/29 06:14:22;;;;;;;30.63;20.70;;;8.40;99.90;;;;;;5015445;28;20033;-72
2022/03/29 06:16:47;;;;;;;30.88;20.92;;;8.40;99.90;;;;;;5015649;28;20070;-72
2022/03/29 06:19:13;;;;;;;30.30;20.42;;;8.30;99.90;;;;;;4999046;28;20477;-72
2022/03/29 06:21:40;;;;;;;31.85;20.42;;;8.40;99.90;;;;;;4999078;28;20084;-72
2022/03/29 06:24:08;;;;;;;30.92;19.75;;;8.30;99.90;;;;;;5015292;28;20149;-72
2022/03/29 06:26:39;;;;;;;31.63;19.80;;;8.30;99.90;;;;;;4998726;28;20045;-72
2022/03/29 06:29:08;;;;;;;31.05;19.30;;;8.30;99.90;;;;;;4998930;28;20069;-72
2022/03/29 06:31:34;;;;;;;33.15;19.85;;;8.30;99.90;;;;;;5015149;28;20517;-72
2022/03/29 06:34:00;;;;;;;32.88;20.70;;;8.30;99.90;;;;;;5015170;28;20038;-72
2022/03/29 06:36:25;;;;;;;37.25;20.60;;;8.40;99.90;;;;;;4998929;28;20156;-72
2022/03/29 06:38:51;;;;;;;35.33;21.27;;;8.40;99.90;;;;;;4999163;28;20044;-71
2022/03/29 06:41:17;;;;;;;34.05;20.75;;;8.40;99.90;;;;;;5015130;28;20041;-71
2022/03/29 06:43:43;;;;;;;34.50;20.90;;;8.40;99.90;;;;;;4998720;28;20048;-71
2022/03/29 06:46:09;;;;;;;34.42;21.35;;;8.40;99.90;;;;;;5015155;28;20172;-71
2022/03/29 06:48:41;;;;;;;38.08;21.30;;;8.40;99.90;;;;;;5015311;28;20048;-71
2022/03/29 06:51:07;;;;;;;29.90;19.93;;;8.50;99.90;;;;;;5015069;28;20529;-71
2022/03/29 06:53:33;;;;;;;33.92;21.73;;;8.50;99.90;;;;;;5014999;28;20048;-72
2022/03/29 06:55:59;;;;;;;30.80;20.60;;;8.50;99.90;;;;;;5016898;28;20130;-72
2022/03/29 06:58:25;;;;;;;37.65;21.45;;;8.50;99.90;;;;;;5002489;28;20077;-71
2022/03/29 07:00:50;;;;;;;33.38;21.42;;;8.60;99.90;;;;;;5019594;28;20053;-71
2022/03/29 07:03:16;;;;;;;35.10;20.80;;;8.60;99.90;;;;;;5019395;28;20041;-71
2022/03/29 07:05:42;;;;;;;38.25;21.77;;;8.60;99.90;;;;;;5019473;28;20045;-71
2022/03/29 07:08:12;;;;;;;37.03;20.17;;;8.70;99.90;;;;;;5018682;28;20525;-72
2022/03/29 07:13:23;;;;;;;29.77;19.90;;;8.80;99.90;;;;;;5018465;28;20045;-72
2022/03/29 07:15:49;;;;;;;30.85;20.60;;;8.80;99.90;;;;;;5018533;28;20052;-72
2022/03/29 07:18:15;;;;;;;32.25;20.45;;;8.90;99.90;;;;;;5002094;28;20128;-72
2022/03/29 07:20:41;;;;;;;34.95;20.45;;;8.90;99.90;;;;;;5018432;28;20124;-72
2022/03/29 07:23:07;;;;;;;33.20;20.65;;;8.90;99.90;;;;;;5001993;28;20068;-72
2022/03/29 07:25:33;;;;;;;29.67;21.23;;;8.90;99.90;;;;;;5001825;28;20462;-72
2022/03/29 07:28:00;;;;;;;32.38;19.90;;;8.90;99.90;;;;;;5018263;28;20490;-74
2022/03/29 07:30:25;;;;;;;33.70;22.10;;;9.00;99.90;;;;;;5018579;28;20033;-74
2022/03/29 07:32:54;;;;;;;39.38;21.98;;;9.00;99.90;;;;;;5001727;28;20087;-74
2022/03/29 07:35:21;;;;;;;37.63;21.25;;;9.10;99.90;;;;;;5018106;28;20053;-74
2022/03/29 07:37:47;;;;;;;34.58;20.92;;;9.10;99.90;;;;;;5018041;28;20391;-74
2022/03/29 07:40:15;;;;;;;37.55;22.35;;;9.10;99.90;;;;;;5001744;28;20044;-74
2022/03/29 07:42:41;;;;;;;38.78;22.10;;;9.20;99.90;;;;;;5017783;28;20052;-72
2022/03/29 07:45:11;;;;;;;34.28;21.23;;;9.10;99.90;;;;;;5017847;28;20045;-74
2022/03/29 07:47:38;;;;;;;32.85;21.20;;;9.20;99.90;;;;;;5018227;28;20406;-72
2022/03/29 07:50:07;;;;;;;29.08;19.98;;;9.20;99.90;;;;;;5017855;28;20033;-72
2022/03/29 07:52:34;;;;;;;35.08;20.08;;;9.20;99.90;;;;;;5017986;28;20041;-72
2022/03/29 07:55:00;;;;;;;33.78;19.80;;;9.20;99.90;;;;;;5017804;28;20038;-72
2022/03/29 07:57:26;;;;;;;31.55;21.17;;;9.30;99.90;;;;;;5001402;28;20041;-72
2022/03/29 07:59:52;;;;;;;34.55;20.25;;;9.30;99.90;;;;;;5017716;28;20124;-72
2022/03/29 08:02:17;;;;;;;35.38;19.85;;;9.20;99.90;;;;;;5017827;28;20071;-72
2022/03/29 08:04:43;;;;;;;33.97;19.75;;;9.20;99.90;;;;;;5017953;28;20489;-72
2022/03/29 08:07:08;;;;;;;34.60;19.38;;;9.30;99.90;;;;;;5016395;28;20551;-72
2022/03/29 08:09:34;;;;;;;29.55;19.83;;;9.30;99.90;;;;;;5017812;28;20485;-72
2022/03/29 08:12:00;;;;;;;34.50;20.60;;;9.40;99.90;;;;;;5017438;28;20441;-72
2022/03/29 08:14:26;;;;;;;29.27;18.65;;;9.40;99.90;;;;;;5017426;28;20037;-72
2022/03/29 08:16:53;;;;;;;28.60;17.52;;;9.50;99.90;;;;;;5017395;28;20045;-71
2022/03/29 08:19:20;;;;;;;29.20;17.80;;;9.50;99.90;;;;;;5017581;28;20095;-71
2022/03/29 08:21:49;;;;;;;27.45;17.27;;;9.50;99.90;;;;;;5017212;28;20528;-72
2022/03/29 08:24:23;;;;;;;32.85;18.13;;;9.60;99.90;;;;;;5001061;28;20037;-72
2022/03/29 08:26:54;;;;;;;30.23;18.27;;;9.60;99.90;;;;;;5017223;28;20044;-72
2022/03/29 08:29:21;;;;;;;32.70;17.95;;;9.70;99.90;;;;;;5017215;28;20038;-72
2022/03/29 08:31:49;;;;;;;31.30;18.35;;;9.70;99.90;;;;;;5000892;28;20038;-72
2022/03/29 08:34:16;;;;;;;35.42;17.80;;;9.80;99.90;;;;;;5017294;28;20052;-72
2022/03/29 08:36:42;;;;;;;33.25;17.92;;;9.70;99.90;;;;;;5016976;28;20154;-72
2022/03/29 08:39:09;;;;;;;38.72;18.63;;;9.70;99.90;;;;;;5000918;28;20092;-72
2022/03/29 08:41:44;;;;;;;35.92;18.75;;;9.70;99.90;;;;;;5016636;28;20037;-72
2022/03/29 08:44:10;;;;;;;40.53;17.35;;;9.80;99.90;;;;;;5017034;28;20073;-72
2022/03/29 08:46:38;;;;;;;32.53;18.25;;;9.80;99.90;;;;;;5016714;28;20506;-72
2022/03/29 08:49:08;;;;;;;29.38;16.58;;;9.80;99.90;;;;;;5016864;28;20493;-72
2022/03/29 08:51:36;;;;;;;34.50;17.90;;;9.80;99.90;;;;;;5016958;28;20043;-72
2022/03/29 08:54:01;;;;;;;35.10;19.27;;;9.90;99.90;;;;;;5000373;28;20084;-74
2022/03/29 08:56:27;;;;;;;37.33;18.92;;;9.90;99.90;;;;;;5016988;28;20478;-73
2022/03/29 08:58:53;;;;;;;32.40;19.02;;;10.00;99.90;;;;;;5016706;28;20402;-73
2022/03/29 09:01:19;;;;;;;31.77;19.02;;;10.00;99.90;;;;;;5016822;28;20106;-73
2022/03/29 09:03:47;;;;;;;38.80;20.13;;;10.00;99.90;;;;;;5000076;28;20084;-73
2022/03/29 09:06:13;;;;;;;41.58;19.67;;;10.00;99.90;;;;;;5016441;28;20095;-73
2022/03/29 09:08:46;;;;;;;34.80;20.60;;;10.10;99.90;;;;;;5016427;28;20034;-73
2022/03/29 09:11:13;;;;;;;35.78;19.30;;;10.20;99.90;;;;;;5000003;28;20041;-73
2022/03/29 09:13:40;;;;;;;35.65;19.65;;;10.30;99.90;;;;;;5016255;28;20510;-73
2022/03/29 09:16:08;;;;;;;33.10;19.83;;;10.40;99.90;;;;;;5016565;28;20048;-73
2022/03/29 09:18:34;;;;;;;34.03;19.48;;;10.50;99.90;;;;;;4999903;28;20551;-73
2022/03/29 09:21:17;;;;;;;36.80;21.90;;;10.50;99.90;;;;;;5016225;28;20041;-73
2022/03/29 09:23:44;;;;;;;;;;;10.60;99.90;;;;;;5000281;28;20128;-73
2022/03/29 09:26:26;;;;;;;33.85;19.58;;;10.60;99.90;;;;;;5016188;28;19921;-73
2022/03/29 09:28:52;;;;;;;30.92;18.13;;;10.80;99.90;;;;;;5016307;28;20033;-73
2022/03/29 09:31:19;;;;;;;32.20;19.52;;;10.90;99.90;;;;;;5016392;28;20620;-73
2022/03/29 09:33:46;;;;;;;35.45;18.67;;;10.90;99.90;;;;;;5015918;28;20508;-72
2022/03/29 09:36:14;;;;;;;35.30;19.73;;;11.00;99.90;;;;;;5015937;28;20512;-72
2022/03/29 09:38:44;;;;;;;42.70;20.30;;;11.10;99.90;;;;;;4999842;28;20037;-72
2022/03/29 09:41:30;;;;;;;35.03;19.60;;;11.10;99.90;;;;;;5015904;28;20391;-72
2022/03/29 09:44:10;;;;;;;33.42;19.95;;;11.20;99.90;;;;;;5016529;28;20037;-72
2022/03/29 09:46:59;;;;;;;34.35;19.02;;;11.20;99.90;;;;;;5015818;28;20048;-75
2022/03/29 09:49:26;;;;;;;31.42;18.92;;;11.20;99.90;;;;;;5016090;28;20516;-75
2022/03/29 09:52:11;;;;;;;31.85;18.25;;;11.30;99.90;;;;;;5015645;28;20120;-75
2022/03/29 09:54:38;;;;;;;33.78;19.27;;;11.30;99.90;;;;;;5015685;28;20033;-75
2022/03/29 09:57:04;;;;;;;36.95;19.65;;;11.30;99.90;;;;;;5015591;28;20041;-72
2022/03/29 09:59:32;;;;;;;34.03;20.35;;;11.30;99.90;;;;;;5015596;28;20041;-72
2022/03/29 10:01:58;;;;;;;36.00;18.90;;;11.30;99.90;;;;;;5015541;28;20055;-73
2022/03/29 10:04:29;;;;;;;30.35;18.13;;;11.30;99.90;;;;;;5015521;28;20124;-72
2022/03/29 10:06:57;;;;;;;31.58;18.70;;;11.30;99.90;;;;;;5015455;28;20470;-72
2022/03/29 10:09:30;;;;;;;30.42;18.35;;;11.30;99.90;;;;;;5015467;28;20073;-72
2022/03/29 10:12:00;;;;;;;28.70;17.92;;;11.30;99.90;;;;;;4999053;28;20041;-72
2022/03/29 10:14:27;;;;;;;34.55;21.08;;;11.30;99.90;;;;;;4999276;28;20025;-72
2022/03/29 10:16:56;;;;;;;32.15;20.38;;;11.20;99.90;;;;;;5015438;28;20045;-72
2022/03/29 10:19:23;;;;;;;26.27;18.35;;;11.20;99.90;;;;;;5015412;28;20042;-72
2022/03/29 10:21:50;;;;;;;32.15;18.63;;;11.20;99.90;;;;;;5015599;28;20533;-72
2022/03/29 10:24:18;;;;;;;33.85;18.30;;;11.20;99.90;;;;;;5015293;28;20049;-72
2022/03/29 10:26:45;;;;;;;29.35;18.25;;;11.30;99.90;;;;;;5015319;28;20037;-72
2022/03/29 10:29:12;;;;;;;29.65;18.05;;;11.40;99.90;;;;;;5015261;28;20037;-72
2022/03/29 10:31:47;;;;;;;29.55;17.65;;;11.50;99.90;;;;;;5018366;28;20042;-72
2022/03/29 10:34:30;;;;;;;30.08;18.27;;;11.70;99.90;;;;;;5003204;28;20045;-72
2022/03/29 10:37:08;;;;;;;;;;;12.00;99.90;;;;;;5003404;28;20038;-72
2022/03/29 10:39:41;;;;;;;36.10;18.23;;;12.10;99.90;;;;;;5019229;28;19924;-72
2022/03/29 10:42:42;;;;;;;28.70;17.98;;;12.40;99.90;;;;;;5018952;28;20497;-72
2022/03/29 10:45:12;;;;;;;29.77;18.05;;;12.60;99.90;;;;;;5019055;28;20049;-71
2022/03/29 10:47:39;;;;;;;29.95;17.05;;;12.80;99.90;;;;;;5019060;28;20038;-71
2022/03/29 10:50:07;;;;;;;26.35;16.42;;;13.00;99.90;;;;;;5018926;28;20406;-72
2022/03/29 10:52:42;;;;;;;26.52;16.58;;;13.40;99.90;;;;;;5018994;28;20037;-72
2022/03/29 10:55:25;;;;;;;24.60;16.85;;;13.70;99.90;;;;;;5019129;28;20128;-72
2022/03/29 10:58:08;;;;;;;27.67;16.92;;;14.20;99.80;;;;;;5019181;28;20037;-72
2022/03/29 11:00:36;;;;;;;27.65;15.90;;;14.50;93.10;;;;;;5002583;28;20116;-72
2022/03/29 11:03:11;;;;;;;29.98;17.63;;;14.80;96.60;;;;;;5018754;28;20048;-72
2022/03/29 11:06:06;;;;;;;27.02;15.98;;;15.20;94.80;;;;;;5019145;28;20045;-72
2022/03/29 11:08:35;;;;;;;27.75;16.58;;;15.70;88.50;;;;;;5002618;28;20488;-72
2022/03/29 11:11:02;;;;;;;27.40;17.42;;;16.00;88.20;;;;;;5018883;28;20038;-72
2022/03/29 11:13:34;;;;;;;26.70;16.25;;;16.20;83.20;;;;;;5018722;28;20037;-72
2022/03/29 11:16:20;;;;;;;25.52;15.57;;;16.10;74.20;;;;;;5018597;28;20063;-72
2022/03/29 11:18:46;;;;;;;27.02;15.80;;;16.20;76.10;;;;;;5001955;28;20046;-73
2022/03/29 11:21:29;;;;;;;29.13;15.23;;;16.40;74.30;;;;;;5018312;28;20052;-73
2022/03/29 11:23:58;;;;;;;26.48;15.10;;;16.40;69.00;;;;;;5018281;28;20037;-73
2022/03/29 11:26:23;;;;;;;33.38;15.93;;;16.50;72.50;;;;;;5018229;28;20083;-73
2022/03/29 11:28:51;;;;;;;29.00;15.48;;;16.50;72.60;;;;;;5018258;28;20042;-73
2022/03/29 11:31:18;;;;;;;29.77;15.77;;;16.60;74.10;;;;;;5018225;28;20506;-73
2022/03/29 11:33:51;;;;;;;31.48;15.45;;;16.60;70.40;;;;;;5018327;28;20083;-73
2022/03/29 11:36:19;;;;;;;26.83;16.10;;;16.60;69.80;;;;;;5001872;28;20041;-73
2022/03/29 11:38:45;;;;;;;27.65;16.45;;;16.40;70.20;;;;;;5018128;28;20042;-73
2022/03/29 11:41:24;;;;;;;33.00;16.67;;;16.30;72.20;;;;;;5017889;28;20040;-74
2022/03/29 11:43:55;;;;;;;23.85;16.00;;;16.10;67.60;;;;;;5001542;28;20041;-72
2022/03/29 11:46:21;;;;;;;28.40;16.30;;;15.80;72.80;;;;;;5018014;28;20128;-72
2022/03/29 11:48:49;;;;;;;25.02;14.88;;;15.90;76.20;;;;;;5017930;28;20595;-72
2022/03/29 11:51:15;;;;;;;34.33;16.63;;;16.30;75.50;;;;;;5017901;28;20041;-72
2022/03/29 11:53:41;;;;;;;29.58;16.27;;;16.60;70.50;;;;;;5017741;28;20037;-72
2022/03/29 11:56:18;;;;;;;26.63;15.32;;;16.90;66.30;;;;;;5017815;28;20041;-72
2022/03/29 11:58:50;;;;;;;26.58;14.13;;;17.20;66.10;;;;;;5018084;28;20100;-72
2022/03/29 12:01:22;;;;;;;24.30;13.43;;;17.10;62.70;;;;;;5018004;28;20053;-72
2022/03/29 12:04:07;;;;;;;27.80;15.48;;;17.00;64.10;;;;;;5017692;28;20045;-72
2022/03/29 12:06:46;;;;;;;27.38;14.20;;;16.80;60.90;;;;;;5017702;28;20046;-73
2022/03/29 12:09:16;;;;;;;21.42;12.63;;;16.70;62.80;;;;;;5017536;28;20405;-73
2022/03/29 12:11:42;;;;;;;25.33;12.73;;;16.40;63.10;;;;;;5017476;28;20037;-73
2022/03/29 12:14:09;;;;;;;23.75;14.02;;;16.30;64.00;;;;;;5017553;28;20116;-73
2022/03/29 12:16:45;;;;;;;28.80;15.30;;;16.30;64.70;;;;;;5017430;28;20048;-73
2022/03/29 12:19:16;;;;;;;29.63;15.27;;;16.30;63.80;;;;;;5017326;28;20048;-73
2022/03/29 12:21:48;;;;;;;26.13;15.63;;;16.20;64.70;;;;;;5017278;28;20044;-73
2022/03/29 12:24:14;;;;;;;31.20;14.85;;;16.10;65.00;;;;;;5001297;28;20104;-73
2022/03/29 12:26:43;;;;;;;23.58;12.68;;;16.00;66.20;;;;;;5017115;28;20167;-73
2022/03/29 12:29:12;;;;;;;22.50;11.27;;;16.00;66.70;;;;;;5000851;28;20044;-73
2022/03/29 12:31:38;;;;;;;21.77;11.05;;;16.00;65.30;;;;;;5017459;28;20450;-75
2022/03/29 12:34:05;;;;;;;28.10;12.05;;;15.90;65.50;;;;;;5017248;28;20461;-75
2022/03/29 12:36:30;;;;;;;23.48;11.48;;;15.90;66.40;;;;;;5017215;28;20049;-75
2022/03/29 12:39:07;;;;;;;21.27;11.68;;;15.90;66.70;;;;;;5017265;28;20450;-75
2022/03/29 12:41:41;;;;;;;21.77;10.65;;;15.80;64.70;;;;;;5000963;28;20099;-74
2022/03/29 12:44:14;;;;;;;23.80;11.85;;;15.80;65.70;;;;;;5000790;28;20087;-75
2022/03/29 12:46:42;;;;;;;22.52;10.27;;;15.90;65.30;;;;;;5017047;28;20444;-75